createdAt,value
2022-11-30T00:00:40.608Z,0.00
2022-11-30T00:01:40.972Z,0.00
2022-11-30T00:02:41.321Z,0.00
2022-11-30T00:03:41.534Z,0.00
2022-11-30T00:04:41.791Z,0.00
2022-11-30T00:05:42.094Z,0.00
2022-11-30T00:06:42.332Z,0.00
2022-11-30T00:07:42.661Z,0.00
2022-11-30T00:08:42.868Z,0.00
2022-11-30T00:09:43.218Z,0.00
2022-11-30T00:10:43.545Z,0.00
2022-11-30T00:11:43.851Z,0.00
2022-11-30T00:12:44.200Z,0.00
2022-11-30T00:13:44.514Z,0.00
2022-11-30T00:14:45.166Z,0.00
2022-11-30T00:15:45.153Z,0.00
2022-11-30T00:16:45.530Z,0.00
2022-11-30T00:17:45.691Z,0.00
2022-11-30T00:18:46.056Z,0.00
2022-11-30T00:19:46.360Z,0.00
2022-11-30T00:20:46.651Z,0.00
2022-11-30T00:21:47.007Z,0.00
2022-11-30T00:22:47.244Z,0.00
2022-11-30T00:23:47.548Z,0.00
2022-11-30T00:24:48.116Z,0.00
2022-11-30T00:25:48.204Z,0.00
2022-11-30T00:26:48.407Z,0.00
2022-11-30T00:27:48.778Z,0.00
2022-11-30T00:28:49.113Z,0.00
2022-11-30T00:29:49.455Z,0.00
2022-11-30T00:30:49.888Z,0.00
2022-11-30T00:31:50.058Z,0.00
2022-11-30T00:32:50.567Z,0.00
2022-11-30T00:33:50.756Z,0.00
2022-11-30T00:34:51.058Z,0.00
2022-11-30T00:35:51.269Z,0.00
2022-11-30T00:36:51.635Z,0.00
2022-11-30T00:37:51.936Z,0.00
2022-11-30T00:38:52.273Z,0.00
2022-11-30T00:39:52.636Z,0.00
2022-11-30T00:40:52.908Z,0.00
2022-11-30T00:41:53.264Z,0.00
2022-11-30T00:42:53.514Z,0.00
2022-11-30T00:43:53.833Z,0.00
2022-11-30T00:44:54.143Z,0.00
2022-11-30T00:45:54.472Z,0.00
2022-11-30T00:46:54.739Z,0.00
2022-11-30T00:47:55.096Z,0.00
2022-11-30T00:48:55.315Z,0.00
2022-11-30T00:49:55.695Z,0.00
2022-11-30T00:51:03.012Z,0.00
2022-11-30T00:51:56.306Z,0.00
2022-11-30T00:52:56.539Z,0.00
2022-11-30T00:53:56.757Z,0.00
2022-11-30T00:54:57.140Z,0.00
2022-11-30T00:55:57.432Z,0.00
2022-11-30T00:56:57.787Z,0.00
2022-11-30T00:57:58.090Z,0.00
2022-11-30T00:58:58.328Z,0.00
2022-11-30T00:59:58.665Z,0.00
2022-11-30T01:00:59.047Z,0.00
2022-11-30T01:01:59.229Z,0.00
2022-11-30T01:02:59.516Z,0.00
2022-11-30T01:03:59.869Z,0.00
2022-11-30T01:05:00.135Z,0.00
2022-11-30T01:06:00.439Z,0.00
2022-11-30T01:07:00.652Z,0.00
2022-11-30T01:08:01.050Z,0.00
2022-11-30T01:09:01.269Z,0.00
2022-11-30T01:10:01.589Z,0.00
2022-11-30T01:11:01.909Z,0.00
2022-11-30T01:12:02.202Z,0.00
2022-11-30T01:13:02.533Z,0.00
2022-11-30T01:14:02.887Z,0.00
2022-11-30T01:15:03.250Z,0.00
2022-11-30T01:16:03.617Z,0.00
2022-11-30T01:17:03.849Z,0.00
2022-11-30T01:18:04.159Z,0.00
2022-11-30T01:19:04.480Z,0.00
2022-11-30T01:20:04.829Z,0.00
2022-11-30T01:21:04.997Z,0.00
2022-11-30T01:22:05.361Z,0.00
2022-11-30T01:23:05.644Z,0.00
2022-11-30T01:24:05.999Z,0.00
2022-11-30T01:25:06.232Z,0.00
2022-11-30T01:26:06.522Z,0.00
2022-11-30T01:27:06.880Z,0.00
2022-11-30T01:28:07.119Z,0.00
2022-11-30T01:29:07.370Z,0.00
2022-11-30T01:30:07.684Z,0.00
2022-11-30T01:31:08.083Z,0.00
2022-11-30T01:32:08.277Z,0.00
2022-11-30T01:33:08.589Z,0.00
2022-11-30T01:34:08.896Z,0.00
2022-11-30T01:35:09.164Z,0.00
2022-11-30T01:36:09.400Z,0.00
2022-11-30T01:37:09.610Z,0.00
2022-11-30T01:38:09.893Z,0.00
2022-11-30T01:39:10.270Z,0.00
2022-11-30T01:40:10.590Z,0.00
2022-11-30T01:41:10.918Z,0.00
2022-11-30T01:42:11.220Z,0.00
2022-11-30T01:43:11.513Z,0.00
2022-11-30T01:44:15.545Z,0.00
2022-11-30T01:45:13.178Z,0.00
2022-11-30T01:46:12.477Z,0.00
2022-11-30T01:47:12.642Z,0.00
2022-11-30T01:48:13.000Z,0.00
2022-11-30T01:49:13.239Z,0.00
2022-11-30T01:50:13.553Z,0.00
2022-11-30T01:51:13.846Z,0.00
2022-11-30T01:52:14.205Z,0.00
2022-11-30T01:53:14.431Z,0.00
2022-11-30T01:54:14.644Z,0.00
2022-11-30T01:55:15.019Z,0.00
2022-11-30T01:56:15.304Z,0.00
2022-11-30T01:57:15.669Z,0.00
2022-11-30T01:58:15.900Z,0.00
2022-11-30T01:59:16.147Z,0.00
2022-11-30T02:00:16.479Z,0.00
2022-11-30T02:01:16.834Z,0.00
2022-11-30T02:02:17.136Z,0.00
2022-11-30T02:03:17.339Z,0.00
2022-11-30T02:04:17.574Z,0.00
2022-11-30T02:05:17.889Z,0.00
2022-11-30T02:06:18.184Z,0.00
2022-11-30T02:07:18.658Z,0.00
2022-11-30T02:08:18.873Z,0.00
2022-11-30T02:09:19.044Z,0.00
2022-11-30T02:10:19.440Z,0.00
2022-11-30T02:11:19.631Z,0.00
2022-11-30T02:12:19.836Z,0.00
2022-11-30T02:13:20.188Z,0.00
2022-11-30T02:14:20.404Z,0.00
2022-11-30T02:15:20.745Z,0.00
2022-11-30T02:16:21.080Z,0.00
2022-11-30T02:17:21.408Z,0.00
2022-11-30T02:18:21.685Z,0.00
2022-11-30T02:19:22.024Z,0.00
2022-11-30T02:20:22.399Z,0.00
2022-11-30T02:21:22.722Z,0.00
2022-11-30T02:22:23.013Z,0.00
2022-11-30T02:23:23.375Z,0.00
2022-11-30T02:24:23.626Z,0.00
2022-11-30T02:25:23.870Z,0.00
2022-11-30T02:26:24.165Z,0.00
2022-11-30T02:27:24.424Z,0.00
2022-11-30T02:28:24.760Z,0.00
2022-11-30T02:29:25.045Z,0.00
2022-11-30T02:30:25.407Z,0.00
2022-11-30T02:31:25.720Z,0.00
2022-11-30T02:32:25.993Z,0.00
2022-11-30T02:33:26.302Z,0.00
2022-11-30T02:34:26.532Z,0.00
2022-11-30T02:35:26.792Z,0.00
2022-11-30T02:36:27.110Z,0.00
2022-11-30T02:37:27.424Z,0.00
2022-11-30T02:38:27.635Z,0.00
2022-11-30T02:39:28.001Z,0.00
2022-11-30T02:40:28.250Z,0.00
2022-11-30T02:41:28.551Z,0.00
2022-11-30T02:42:28.783Z,0.00
2022-11-30T02:43:29.021Z,0.00
2022-11-30T02:44:29.303Z,0.00
2022-11-30T02:45:29.664Z,0.00
2022-11-30T02:46:30.007Z,0.00
2022-11-30T02:47:30.221Z,0.00
2022-11-30T02:48:30.554Z,0.00
2022-11-30T02:49:30.912Z,0.00
2022-11-30T02:50:31.172Z,0.00
2022-11-30T02:51:31.479Z,0.00
2022-11-30T02:52:31.684Z,0.00
2022-11-30T02:53:32.041Z,0.00
2022-11-30T02:54:32.271Z,0.00
2022-11-30T02:55:32.535Z,0.00
2022-11-30T02:56:32.825Z,0.00
2022-11-30T02:57:33.217Z,0.00
2022-11-30T02:58:33.521Z,0.00
2022-11-30T02:59:33.831Z,0.00
2022-11-30T03:00:34.171Z,0.00
2022-11-30T03:01:34.668Z,0.00
2022-11-30T03:02:34.877Z,0.00
2022-11-30T03:03:35.050Z,0.00
2022-11-30T03:04:35.289Z,0.00
2022-11-30T03:05:35.621Z,0.00
2022-11-30T03:06:35.905Z,0.00
2022-11-30T03:07:36.417Z,0.00
2022-11-30T03:08:36.565Z,0.00
2022-11-30T03:09:36.905Z,0.00
2022-11-30T03:10:37.265Z,0.00
2022-11-30T03:11:37.555Z,0.00
2022-11-30T03:12:37.895Z,0.00
2022-11-30T03:13:39.132Z,0.00
2022-11-30T03:14:38.398Z,0.00
2022-11-30T03:15:38.694Z,0.00
2022-11-30T03:16:38.881Z,0.00
2022-11-30T03:17:39.183Z,0.00
2022-11-30T03:18:39.543Z,0.00
2022-11-30T03:19:39.774Z,0.00
2022-11-30T03:20:39.995Z,0.00
2022-11-30T03:21:40.206Z,0.00
2022-11-30T03:22:40.546Z,0.00
2022-11-30T03:23:40.892Z,0.00
2022-11-30T03:24:41.262Z,0.00
2022-11-30T03:25:41.582Z,0.00
2022-11-30T03:26:41.893Z,0.00
2022-11-30T03:27:42.132Z,0.00
2022-11-30T03:28:42.424Z,0.00
2022-11-30T03:29:42.773Z,0.00
2022-11-30T03:30:43.093Z,0.00
2022-11-30T03:31:43.313Z,0.00
2022-11-30T03:32:43.587Z,0.00
2022-11-30T03:33:43.927Z,0.00
2022-11-30T03:34:44.455Z,0.00
2022-11-30T03:35:44.634Z,0.00
2022-11-30T03:36:44.926Z,0.00
2022-11-30T03:37:45.276Z,0.00
2022-11-30T03:38:45.491Z,0.00
2022-11-30T03:39:45.853Z,0.00
2022-11-30T03:40:46.173Z,0.00
2022-11-30T03:41:46.489Z,0.00
2022-11-30T03:42:46.723Z,0.00
2022-11-30T03:43:47.047Z,0.00
2022-11-30T03:44:47.683Z,0.00
2022-11-30T03:45:47.647Z,0.00
2022-11-30T03:46:47.977Z,0.00
2022-11-30T03:47:48.176Z,0.00
2022-11-30T03:48:48.490Z,0.00
2022-11-30T03:49:48.813Z,0.00
2022-11-30T03:50:49.144Z,0.00
2022-11-30T03:51:49.443Z,0.00
2022-11-30T03:52:49.668Z,0.00
2022-11-30T03:53:50.025Z,0.00
2022-11-30T03:54:50.227Z,0.00
2022-11-30T03:55:50.624Z,0.00
2022-11-30T03:56:50.796Z,0.00
2022-11-30T03:57:51.151Z,0.00
2022-11-30T03:58:51.377Z,0.00
2022-11-30T03:59:51.640Z,0.00
2022-11-30T04:00:51.955Z,0.00
2022-11-30T04:01:52.311Z,0.00
2022-11-30T04:02:52.561Z,0.00
2022-11-30T04:03:52.738Z,0.00
2022-11-30T04:04:53.079Z,0.00
2022-11-30T04:05:53.467Z,0.00
2022-11-30T04:06:53.763Z,0.00
2022-11-30T04:07:54.119Z,0.00
2022-11-30T04:08:54.321Z,0.00
2022-11-30T04:09:54.646Z,0.00
2022-11-30T04:10:55.030Z,0.00
2022-11-30T04:11:55.336Z,0.00
2022-11-30T04:12:55.659Z,0.00
2022-11-30T04:13:56.025Z,0.00
2022-11-30T04:14:56.320Z,0.00
2022-11-30T04:15:56.750Z,0.00
2022-11-30T04:16:57.025Z,0.00
2022-11-30T04:17:57.245Z,0.00
2022-11-30T04:18:57.518Z,0.00
2022-11-30T04:19:57.855Z,0.00
2022-11-30T04:20:58.215Z,0.00
2022-11-30T04:21:58.547Z,0.00
2022-11-30T04:22:58.865Z,0.00
2022-11-30T04:23:59.194Z,0.00
2022-11-30T04:24:59.488Z,0.00
2022-11-30T04:25:59.885Z,0.00
2022-11-30T04:27:00.092Z,0.00
2022-11-30T04:28:00.378Z,0.00
2022-11-30T04:29:04.307Z,0.00
2022-11-30T04:30:00.938Z,0.00
2022-11-30T04:31:01.353Z,0.00
2022-11-30T04:32:01.518Z,0.00
2022-11-30T04:33:01.872Z,0.00
2022-11-30T04:34:02.104Z,0.00
2022-11-30T04:35:02.335Z,0.00
2022-11-30T04:36:02.586Z,0.00
2022-11-30T04:37:02.904Z,0.00
2022-11-30T04:38:03.198Z,0.00
2022-11-30T04:39:03.538Z,0.00
2022-11-30T04:40:03.895Z,0.00
2022-11-30T04:41:04.145Z,0.00
2022-11-30T04:42:04.459Z,0.00
2022-11-30T04:43:04.756Z,0.00
2022-11-30T04:44:05.095Z,0.00
2022-11-30T04:45:05.417Z,0.00
2022-11-30T04:46:05.787Z,0.00
2022-11-30T04:47:06.058Z,0.00
2022-11-30T04:48:06.401Z,0.00
2022-11-30T04:49:06.755Z,0.00
2022-11-30T04:50:06.986Z,0.00
2022-11-30T04:51:07.200Z,0.00
2022-11-30T04:52:07.547Z,0.00
2022-11-30T04:53:07.925Z,0.00
2022-11-30T04:54:08.225Z,0.00
2022-11-30T04:55:08.464Z,0.00
2022-11-30T04:56:08.767Z,0.00
2022-11-30T04:57:08.981Z,0.00
2022-11-30T04:58:09.336Z,0.00
2022-11-30T04:59:09.547Z,0.00
2022-11-30T05:00:09.921Z,0.00
2022-11-30T05:01:10.229Z,0.00
2022-11-30T05:02:10.473Z,0.00
2022-11-30T05:03:10.774Z,0.00
2022-11-30T05:04:11.118Z,0.00
2022-11-30T05:05:11.593Z,0.00
2022-11-30T05:06:11.728Z,0.00
2022-11-30T05:07:12.094Z,0.00
2022-11-30T05:08:12.404Z,0.00
2022-11-30T05:09:12.608Z,0.00
2022-11-30T05:10:12.960Z,0.00
2022-11-30T05:11:13.178Z,0.00
2022-11-30T05:12:13.508Z,0.00
2022-11-30T05:13:13.874Z,0.00
2022-11-30T05:14:14.205Z,0.00
2022-11-30T05:15:14.536Z,0.00
2022-11-30T05:16:14.902Z,0.00
2022-11-30T05:17:15.094Z,0.00
2022-11-30T05:18:15.415Z,0.00
2022-11-30T05:19:15.734Z,0.00
2022-11-30T05:20:16.017Z,0.00
2022-11-30T05:21:16.349Z,0.00
2022-11-30T05:22:16.681Z,0.00
2022-11-30T05:23:17.054Z,0.00
2022-11-30T05:24:17.384Z,0.00
2022-11-30T05:25:17.706Z,0.00
2022-11-30T05:26:18.035Z,0.00
2022-11-30T05:27:22.515Z,0.00
2022-11-30T05:28:18.656Z,0.00
2022-11-30T05:29:19.018Z,0.00
2022-11-30T05:30:19.245Z,0.00
2022-11-30T05:31:19.532Z,0.00
2022-11-30T05:32:19.723Z,0.00
2022-11-30T05:33:20.024Z,0.00
2022-11-30T05:34:20.382Z,0.00
2022-11-30T05:35:20.716Z,0.00
2022-11-30T05:36:21.028Z,0.00
2022-11-30T05:37:21.355Z,0.00
2022-11-30T05:38:21.714Z,0.00
2022-11-30T05:39:21.896Z,0.00
2022-11-30T05:40:22.125Z,0.00
2022-11-30T05:41:22.388Z,0.00
2022-11-30T05:42:22.706Z,0.00
2022-11-30T05:43:23.025Z,0.00
2022-11-30T05:44:23.328Z,0.00
2022-11-30T05:45:23.543Z,0.00
2022-11-30T05:46:23.938Z,0.00
2022-11-30T05:47:24.109Z,0.00
2022-11-30T05:48:24.476Z,0.00
2022-11-30T05:49:24.787Z,0.00
2022-11-30T05:50:25.051Z,0.00
2022-11-30T05:51:25.339Z,0.00
2022-11-30T05:52:25.629Z,0.00
2022-11-30T05:53:25.960Z,0.00
2022-11-30T05:54:26.352Z,80.00
2022-11-30T05:55:26.521Z,0.00
2022-11-30T05:56:26.861Z,0.00
2022-11-30T05:57:27.226Z,0.00
2022-11-30T05:58:27.519Z,0.00
2022-11-30T05:59:27.886Z,0.00
2022-11-30T06:00:28.244Z,0.00
2022-11-30T06:01:28.526Z,0.00
2022-11-30T06:02:28.950Z,0.00
2022-11-30T06:03:29.240Z,0.00
2022-11-30T06:04:29.458Z,0.00
2022-11-30T06:05:29.740Z,0.00
2022-11-30T06:06:30.136Z,0.00
2022-11-30T06:07:30.342Z,0.00
2022-11-30T06:08:30.555Z,0.00
2022-11-30T06:09:30.787Z,0.00
2022-11-30T06:10:31.025Z,0.00
2022-11-30T06:11:31.329Z,0.00
2022-11-30T06:12:31.639Z,0.00
2022-11-30T06:13:31.939Z,0.00
2022-11-30T06:14:32.271Z,0.00
2022-11-30T06:15:32.610Z,0.00
2022-11-30T06:16:33.364Z,0.00
2022-11-30T06:17:33.252Z,0.00
2022-11-30T06:18:33.560Z,0.00
2022-11-30T06:19:33.780Z,0.00
2022-11-30T06:20:34.147Z,0.00
2022-11-30T06:21:34.467Z,0.00
2022-11-30T06:22:34.751Z,0.00
2022-11-30T06:23:35.110Z,0.00
2022-11-30T06:24:35.328Z,0.00
2022-11-30T06:25:35.668Z,0.00
2022-11-30T06:26:36.056Z,0.00
2022-11-30T06:27:36.239Z,0.00
2022-11-30T06:28:36.606Z,0.00
2022-11-30T06:29:36.940Z,0.00
2022-11-30T06:30:37.268Z,0.00
2022-11-30T06:31:37.581Z,0.00
2022-11-30T06:32:37.880Z,0.00
2022-11-30T06:33:38.239Z,0.00
2022-11-30T06:34:38.564Z,0.00
2022-11-30T06:35:38.842Z,0.00
2022-11-30T06:36:39.228Z,0.00
2022-11-30T06:37:39.530Z,0.00
2022-11-30T06:38:39.789Z,0.00
2022-11-30T06:40:41.382Z,0.00
2022-11-30T06:41:40.630Z,0.00
2022-11-30T06:42:40.861Z,0.00
2022-11-30T06:43:41.108Z,0.00
2022-11-30T06:44:41.426Z,0.00
2022-11-30T06:45:41.786Z,0.00
2022-11-30T06:46:42.097Z,0.00
2022-11-30T06:47:42.407Z,0.00
2022-11-30T06:48:42.612Z,0.00
2022-11-30T06:49:42.966Z,0.00
2022-11-30T06:50:48.395Z,4.00
2022-11-30T06:51:44.510Z,4.00
2022-11-30T06:52:43.748Z,0.00
2022-11-30T06:53:44.122Z,4.00
2022-11-30T06:54:44.694Z,4.00
2022-11-30T06:55:44.687Z,4.00
2022-11-30T06:56:44.979Z,4.00
2022-11-30T06:57:45.316Z,4.00
2022-11-30T06:58:45.703Z,8.00
2022-11-30T06:59:45.911Z,4.00
2022-11-30T07:00:46.303Z,4.00
2022-11-30T07:01:46.481Z,12.00
2022-11-30T07:02:46.839Z,12.00
2022-11-30T07:03:47.180Z,8.00
2022-11-30T07:04:47.733Z,12.00
2022-11-30T07:05:47.718Z,8.00
2022-11-30T07:06:47.948Z,12.00
2022-11-30T07:07:48.198Z,12.00
2022-11-30T07:08:49.248Z,16.00
2022-11-30T07:09:48.707Z,16.00
2022-11-30T07:10:48.959Z,16.00
2022-11-30T07:11:49.218Z,16.00
2022-11-30T07:12:49.631Z,12.00
2022-11-30T07:13:49.849Z,16.00
2022-11-30T07:14:50.468Z,20.00
2022-11-30T07:15:50.411Z,24.00
2022-11-30T07:16:50.707Z,24.00
2022-11-30T07:17:50.913Z,28.00
2022-11-30T07:18:51.238Z,28.00
2022-11-30T07:19:51.461Z,32.00
2022-11-30T07:20:51.691Z,36.00
2022-11-30T07:21:52.069Z,36.00
2022-11-30T07:22:52.363Z,36.00
2022-11-30T07:23:56.882Z,36.00
2022-11-30T07:24:53.062Z,36.00
2022-11-30T07:25:53.390Z,40.00
2022-11-30T07:26:53.740Z,48.00
2022-11-30T07:27:53.922Z,56.00
2022-11-30T07:28:54.171Z,64.00
2022-11-30T07:29:54.419Z,68.00
2022-11-30T07:30:54.686Z,72.00
2022-11-30T07:31:55.069Z,76.00
2022-11-30T07:32:55.277Z,76.00
2022-11-30T07:33:55.618Z,80.00
2022-11-30T07:34:55.942Z,84.00
2022-11-30T07:35:56.216Z,84.00
2022-11-30T07:36:56.458Z,84.00
2022-11-30T07:37:56.663Z,92.00
2022-11-30T07:38:57.107Z,96.00
2022-11-30T07:42:18.157Z,116.00
2022-11-30T07:43:18.407Z,124.00
2022-11-30T07:44:18.670Z,136.00
2022-11-30T07:45:18.917Z,144.00
2022-11-30T07:46:19.300Z,148.00
2022-11-30T07:47:19.540Z,156.00
2022-11-30T07:48:19.747Z,156.00
2022-11-30T07:49:20.015Z,156.00
2022-11-30T07:50:20.282Z,168.00
2022-11-30T07:51:20.479Z,172.00
2022-11-30T07:52:20.748Z,172.00
2022-11-30T07:53:20.973Z,164.00
2022-11-30T07:54:21.230Z,160.00
2022-11-30T07:55:21.459Z,156.00
2022-11-30T07:56:21.693Z,160.00
2022-11-30T07:57:22.061Z,164.00
2022-11-30T07:58:22.255Z,168.00
2022-11-30T07:59:22.514Z,172.00
2022-11-30T08:00:22.844Z,180.00
2022-11-30T08:01:23.317Z,180.00
2022-11-30T08:02:23.604Z,188.00
2022-11-30T08:03:23.827Z,204.00
2022-11-30T08:04:24.092Z,232.00
2022-11-30T08:05:24.331Z,268.00
2022-11-30T08:06:24.636Z,300.00
2022-11-30T08:07:24.937Z,348.00
2022-11-30T08:08:25.204Z,412.00
2022-11-30T08:09:25.453Z,456.00
2022-11-30T08:10:25.824Z,512.00
2022-11-30T08:11:26.126Z,556.00
2022-11-30T08:12:26.462Z,592.00
2022-11-30T08:13:26.767Z,620.00
2022-11-30T08:14:26.993Z,644.00
2022-11-30T08:15:32.355Z,664.00
2022-11-30T08:16:28.714Z,688.00
2022-11-30T08:17:28.034Z,708.00
2022-11-30T08:18:28.261Z,728.00
2022-11-30T08:19:28.581Z,748.00
2022-11-30T08:20:28.808Z,764.00
2022-11-30T08:21:29.074Z,784.00
2022-11-30T08:22:29.389Z,808.00
2022-11-30T08:23:29.641Z,808.00
2022-11-30T08:24:29.912Z,864.00
2022-11-30T08:25:30.198Z,896.00
2022-11-30T08:26:30.490Z,876.00
2022-11-30T08:27:30.841Z,952.00
2022-11-30T08:28:31.005Z,960.00
2022-11-30T08:29:31.265Z,960.00
2022-11-30T08:30:32.723Z,924.00
2022-11-30T08:31:31.826Z,924.00
2022-11-30T08:32:32.104Z,904.00
2022-11-30T08:33:32.332Z,856.00
2022-11-30T08:34:32.675Z,864.00
2022-11-30T08:35:33.004Z,1040.00
2022-11-30T08:36:33.334Z,1156.00
2022-11-30T08:37:33.616Z,1192.00
2022-11-30T08:38:33.854Z,1196.00
2022-11-30T08:39:34.094Z,1144.00
2022-11-30T08:40:34.298Z,1104.00
2022-11-30T08:41:34.576Z,992.00
2022-11-30T08:42:34.818Z,1024.00
2022-11-30T08:43:35.097Z,1048.00
2022-11-30T08:44:35.295Z,956.00
2022-11-30T08:45:35.544Z,788.00
2022-11-30T08:46:52.369Z,692.00
2022-11-30T08:47:37.224Z,704.00
2022-11-30T08:48:36.439Z,752.00
2022-11-30T08:49:36.694Z,728.00
2022-11-30T08:50:36.909Z,644.00
2022-11-30T08:52:38.625Z,580.00
2022-11-30T08:53:37.893Z,564.00
2022-11-30T08:54:38.224Z,584.00
2022-11-30T08:55:38.444Z,592.00
2022-11-30T08:56:38.695Z,624.00
2022-11-30T08:57:39.002Z,616.00
2022-11-30T08:58:39.248Z,560.00
2022-11-30T08:59:39.611Z,556.00
2022-11-30T09:00:39.914Z,580.00
2022-11-30T09:01:40.169Z,588.00
2022-11-30T09:02:40.520Z,616.00
2022-11-30T09:03:40.775Z,668.00
2022-11-30T09:04:40.985Z,720.00
2022-11-30T09:05:41.222Z,704.00
2022-11-30T09:06:41.450Z,704.00
2022-11-30T09:07:41.782Z,700.00
2022-11-30T09:08:41.959Z,664.00
2022-11-30T09:09:42.199Z,624.00
2022-11-30T09:10:42.429Z,600.00
2022-11-30T09:11:42.657Z,640.00
2022-11-30T09:12:42.925Z,752.00
2022-11-30T09:13:43.218Z,816.00
2022-11-30T09:14:43.600Z,904.00
2022-11-30T09:15:43.961Z,924.00
2022-11-30T09:16:44.156Z,940.00
2022-11-30T09:17:44.389Z,960.00
2022-11-30T09:18:44.675Z,936.00
2022-11-30T09:19:44.896Z,880.00
2022-11-30T09:20:45.206Z,848.00
2022-11-30T09:21:51.139Z,792.00
2022-11-30T09:22:46.747Z,768.00
2022-11-30T09:23:46.032Z,756.00
2022-11-30T09:24:46.600Z,740.00
2022-11-30T09:25:46.569Z,728.00
2022-11-30T09:26:46.848Z,684.00
2022-11-30T09:27:47.097Z,632.00
2022-11-30T09:28:47.306Z,636.00
2022-11-30T09:29:47.549Z,696.00
2022-11-30T09:30:47.856Z,724.00
2022-11-30T09:31:48.077Z,692.00
2022-11-30T09:32:48.417Z,704.00
2022-11-30T09:33:48.721Z,704.00
2022-11-30T09:34:50.703Z,684.00
2022-11-30T09:35:49.282Z,668.00
2022-11-30T09:36:49.547Z,660.00
2022-11-30T09:37:49.766Z,620.00
2022-11-30T09:38:50.086Z,632.00
2022-11-30T09:39:50.347Z,620.00
2022-11-30T09:40:50.650Z,632.00
2022-11-30T09:41:51.009Z,632.00
2022-11-30T09:42:51.288Z,648.00
2022-11-30T09:43:51.508Z,624.00
2022-11-30T09:44:51.857Z,632.00
2022-11-30T09:45:52.104Z,672.00
2022-11-30T09:46:52.328Z,660.00
2022-11-30T09:47:52.687Z,648.00
2022-11-30T09:48:52.879Z,684.00
2022-11-30T09:49:53.147Z,720.00
2022-11-30T09:50:53.489Z,736.00
2022-11-30T09:51:53.810Z,736.00
2022-11-30T09:52:54.141Z,752.00
2022-11-30T09:53:54.485Z,764.00
2022-11-30T09:54:54.809Z,768.00
2022-11-30T09:55:55.067Z,772.00
2022-11-30T09:56:55.277Z,768.00
2022-11-30T09:57:55.521Z,776.00
2022-11-30T09:58:55.870Z,772.00
2022-11-30T09:59:56.086Z,764.00
2022-11-30T10:00:56.418Z,764.00
2022-11-30T10:01:57.410Z,768.00
2022-11-30T10:02:57.065Z,768.00
2022-11-30T10:03:57.311Z,768.00
2022-11-30T10:04:57.542Z,768.00
2022-11-30T10:05:57.815Z,780.00
2022-11-30T10:06:58.110Z,788.00
2022-11-30T10:07:58.860Z,792.00
2022-11-30T10:08:58.761Z,792.00
2022-11-30T10:10:23.860Z,788.00
2022-11-30T10:11:00.298Z,800.00
2022-11-30T10:11:59.529Z,812.00
2022-11-30T10:12:59.934Z,812.00
2022-11-30T10:14:00.129Z,808.00
2022-11-30T10:15:00.725Z,808.00
2022-11-30T10:16:00.703Z,792.00
2022-11-30T10:17:00.924Z,788.00
2022-11-30T10:18:01.231Z,792.00
2022-11-30T10:19:01.450Z,784.00
2022-11-30T10:20:01.831Z,780.00
2022-11-30T10:21:02.046Z,772.00
2022-11-30T10:22:02.308Z,784.00
2022-11-30T10:23:02.648Z,812.00
2022-11-30T10:24:02.945Z,828.00
2022-11-30T10:25:08.602Z,844.00
2022-11-30T10:26:04.507Z,848.00
2022-11-30T10:27:03.768Z,848.00
2022-11-30T10:28:18.186Z,856.00
2022-11-30T10:29:05.329Z,864.00
2022-11-30T10:30:04.561Z,860.00
2022-11-30T10:31:04.881Z,860.00
2022-11-30T10:32:05.069Z,848.00
2022-11-30T10:33:05.417Z,844.00
2022-11-30T10:34:05.648Z,876.00
2022-11-30T10:35:05.867Z,924.00
2022-11-30T10:36:06.189Z,916.00
2022-11-30T10:37:06.429Z,908.00
2022-11-30T10:38:06.672Z,916.00
2022-11-30T10:39:09.654Z,916.00
2022-11-30T10:40:08.301Z,932.00
2022-11-30T10:41:07.554Z,928.00
2022-11-30T10:42:07.819Z,900.00
2022-11-30T10:43:08.177Z,896.00
2022-11-30T10:44:08.407Z,900.00
2022-11-30T10:45:08.739Z,916.00
2022-11-30T10:46:13.817Z,936.00
2022-11-30T10:47:10.239Z,964.00
2022-11-30T10:48:09.529Z,980.00
2022-11-30T10:49:09.739Z,984.00
2022-11-30T10:50:10.080Z,996.00
2022-11-30T10:51:10.416Z,1016.00
2022-11-30T10:52:10.639Z,1016.00
2022-11-30T10:53:10.970Z,992.00
2022-11-30T10:54:11.229Z,976.00
2022-11-30T10:55:11.543Z,976.00
2022-11-30T10:56:11.800Z,996.00
2022-11-30T10:57:12.012Z,996.00
2022-11-30T10:58:12.299Z,1016.00
2022-11-30T10:59:12.492Z,1028.00
2022-11-30T11:00:12.770Z,1032.00
2022-11-30T11:01:13.050Z,1028.00
2022-11-30T11:02:13.271Z,1008.00
2022-11-30T11:03:13.502Z,984.00
2022-11-30T11:04:13.811Z,976.00
2022-11-30T11:05:14.088Z,972.00
2022-11-30T11:06:14.592Z,980.00
2022-11-30T11:07:14.931Z,992.00
2022-11-30T11:08:15.041Z,1004.00
2022-11-30T11:09:15.212Z,1008.00
2022-11-30T11:10:15.485Z,1016.00
2022-11-30T11:11:15.723Z,1008.00
2022-11-30T11:12:15.971Z,1008.00
2022-11-30T11:13:16.233Z,1012.00
2022-11-30T11:14:16.433Z,1004.00
2022-11-30T11:15:16.748Z,988.00
2022-11-30T11:16:17.008Z,976.00
2022-11-30T11:17:17.240Z,940.00
2022-11-30T11:18:17.609Z,912.00
2022-11-30T11:19:17.815Z,900.00
2022-11-30T11:20:18.060Z,928.00
2022-11-30T11:21:18.391Z,964.00
2022-11-30T11:22:18.692Z,980.00
2022-11-30T11:23:18.978Z,996.00
2022-11-30T11:24:19.184Z,1032.00
2022-11-30T11:25:19.422Z,1052.00
2022-11-30T11:26:19.708Z,1020.00
2022-11-30T11:27:20.039Z,952.00
2022-11-30T11:28:20.399Z,936.00
2022-11-30T11:29:20.602Z,908.00
2022-11-30T11:30:20.841Z,908.00
2022-11-30T11:31:21.135Z,928.00
2022-11-30T11:32:21.352Z,928.00
2022-11-30T11:33:21.673Z,920.00
2022-11-30T11:34:21.984Z,928.00
2022-11-30T11:35:22.237Z,920.00
2022-11-30T11:36:22.507Z,944.00
2022-11-30T11:37:22.832Z,1000.00
2022-11-30T11:38:23.073Z,1064.00
2022-11-30T11:39:23.284Z,1124.00
2022-11-30T11:40:23.533Z,1160.00
2022-11-30T11:41:23.790Z,1180.00
2022-11-30T11:42:24.012Z,1204.00
2022-11-30T11:43:24.283Z,1196.00
2022-11-30T11:44:24.510Z,1164.00
2022-11-30T11:45:24.743Z,1136.00
2022-11-30T11:46:25.025Z,1120.00
2022-11-30T11:47:25.350Z,1084.00
2022-11-30T11:48:29.015Z,1072.00
2022-11-30T11:49:25.934Z,1068.00
2022-11-30T11:50:50.378Z,1092.00
2022-11-30T11:51:27.431Z,1136.00
2022-11-30T11:52:26.695Z,1148.00
2022-11-30T11:53:26.977Z,1152.00
2022-11-30T11:54:27.211Z,1132.00
2022-11-30T11:55:27.464Z,1120.00
2022-11-30T11:56:27.690Z,1164.00
2022-11-30T11:57:27.933Z,1232.00
2022-11-30T11:58:28.153Z,1296.00
2022-11-30T11:59:32.516Z,1328.00
2022-11-30T12:00:28.682Z,1336.00
2022-11-30T12:01:39.819Z,1332.00
2022-11-30T12:02:30.193Z,1336.00
2022-11-30T12:03:29.480Z,1332.00
2022-11-30T12:04:29.784Z,1328.00
2022-11-30T12:05:30.000Z,1292.00
2022-11-30T12:06:30.229Z,1256.00
2022-11-30T12:07:30.518Z,1232.00
2022-11-30T12:08:30.748Z,1244.00
2022-11-30T12:09:30.988Z,1176.00
2022-11-30T12:11:32.542Z,1080.00
2022-11-30T12:12:31.831Z,1024.00
2022-11-30T12:13:32.035Z,972.00
2022-11-30T12:14:32.274Z,960.00
2022-11-30T12:15:32.503Z,864.00
2022-11-30T12:16:32.951Z,780.00
2022-11-30T12:17:33.171Z,708.00
2022-11-30T12:18:33.510Z,632.00
2022-11-30T12:19:33.840Z,572.00
2022-11-30T12:20:34.169Z,544.00
2022-11-30T12:21:34.473Z,512.00
2022-11-30T12:22:34.740Z,480.00
2022-11-30T12:23:35.070Z,452.00
2022-11-30T12:24:35.304Z,424.00
2022-11-30T12:25:35.551Z,416.00
2022-11-30T12:26:35.811Z,408.00
2022-11-30T12:27:36.258Z,400.00
2022-11-30T12:28:36.400Z,396.00
2022-11-30T12:29:36.610Z,388.00
2022-11-30T12:30:36.940Z,388.00
2022-11-30T12:31:37.236Z,376.00
2022-11-30T12:32:37.441Z,368.00
2022-11-30T12:33:37.801Z,352.00
2022-11-30T12:34:37.984Z,348.00
2022-11-30T12:35:38.251Z,348.00
2022-11-30T12:36:38.570Z,340.00
2022-11-30T12:37:41.822Z,344.00
2022-11-30T12:38:40.113Z,344.00
2022-11-30T12:39:39.399Z,336.00
2022-11-30T12:40:39.611Z,340.00
2022-11-30T12:41:39.939Z,332.00
2022-11-30T12:42:40.260Z,332.00
2022-11-30T12:43:40.530Z,344.00
2022-11-30T12:44:42.500Z,352.00
2022-11-30T12:45:41.151Z,356.00
2022-11-30T12:46:41.501Z,368.00
2022-11-30T12:47:41.694Z,380.00
2022-11-30T12:48:42.061Z,392.00
2022-11-30T12:49:42.313Z,396.00
2022-11-30T12:50:42.520Z,408.00
2022-11-30T12:51:42.782Z,412.00
2022-11-30T12:52:43.011Z,416.00
2022-11-30T12:53:43.360Z,412.00
2022-11-30T12:54:43.579Z,412.00
2022-11-30T12:55:43.795Z,408.00
2022-11-30T12:56:46.120Z,396.00
2022-11-30T12:57:44.295Z,388.00
2022-11-30T12:58:44.751Z,396.00
2022-11-30T12:59:44.947Z,404.00
2022-11-30T13:00:45.209Z,404.00
2022-11-30T13:01:45.744Z,408.00
2022-11-30T13:02:45.781Z,420.00